West Mecca, Ohio
Current Conditions -  °F | °C
As of 2:51 PM on Monday 24 Nov 2014 (Local Time) from KYNG Reporting Station
Broken Clouds Broken Clouds  
Wind Chill: 58°   Ceiling: 8500
Heat Index: 58°   Visibility: 10mi
Dew Point: 49°   Wind: 25mph
Humidity: 72%   Direction: 230°SW
Pressure: 29.41"   Gusts: 35mph
Location:  41.3436°N, 80.7192°W
Report Text: KYNG 241951Z 23022G30KT 10SM FEW025 SCT050 BKN085 14/09 A2941 RMK AO2 PK WND 23037/1852 RAE26 SLP958 P0001 T01440094
Loading
Personal Weather Stations






























Interactive Weather Map New forecast layout! Learn more

10-Day Weather Forecast

Advertisements
Track Severe Weather on mobile